Terminal Aerodrome Forecast
Issued by NWS Cleveland, OH

Home | Current Version | Previous Version | Text Only | Print | Product List | Glossary On
Versions: 1 2 3 4 5 6 7 8 9 10 11 12 13
000
FTUS41 KCLE 231746
TAFTOL
TAF
KTOL 231746Z 2318/2418 13008KT 6SM -RA BKN045
      TEMPO 2318/2321 3SM RA BKN020
     FM232200 21010G18KT 6SM -RA BR OVC012
     FM240100 25017G25KT 6SM -SHRA BR OVC007
     FM240400 23012G20KT 5SM -SHRA OVC015
     FM240900 23012KT P6SM -SHRA OVC015
     FM241500 22012G20KT P6SM VCSH BKN025=

USA.gov is the U.S. government's official web portal to all federal, state and local government web resources and services.